createdAt,value
2018-05-18T00:00:29.226Z,97.03
2018-05-18T00:01:29.475Z,97.08
2018-05-18T00:02:29.467Z,96.89
2018-05-18T00:03:29.182Z,97.42
2018-05-18T00:04:29.434Z,97.66
2018-05-18T00:05:29.158Z,97.85
2018-05-18T00:06:29.416Z,97.66
2018-05-18T00:07:29.123Z,98.03
2018-05-18T00:08:29.388Z,97.75
2018-05-18T00:09:29.362Z,96.98
2018-05-18T00:10:29.079Z,96.8
2018-05-18T00:11:29.339Z,97.08
2018-05-18T00:12:29.049Z,97.37
2018-05-18T00:13:29.039Z,96.98
2018-05-18T00:14:29.026Z,96.22
2018-05-18T00:15:29.004Z,95.94
2018-05-18T00:16:28.992Z,96.8
2018-05-18T00:17:28.976Z,96.7
2018-05-18T00:18:28.962Z,96.22
2018-05-18T00:19:28.958Z,97.66
2018-05-18T00:20:28.931Z,97.66
2018-05-18T00:21:29.184Z,96.8
2018-05-18T00:22:28.909Z,96.89
2018-05-18T00:23:28.888Z,97.08
2018-05-18T00:24:28.877Z,96.98
2018-05-18T00:25:28.860Z,96.32
2018-05-18T00:26:29.110Z,96.89
2018-05-18T00:27:29.097Z,96.89
2018-05-18T00:28:28.818Z,96.32
2018-05-18T00:29:29.088Z,96.32
2018-05-18T00:30:28.787Z,96.03
2018-05-18T00:31:29.031Z,96.13
2018-05-18T00:32:29.016Z,96.7
2018-05-18T00:33:29.008Z,96.8
2018-05-18T00:34:28.998Z,96.32
2018-05-18T00:35:28.711Z,96.61
2018-05-18T00:36:28.694Z,95.94
2018-05-18T00:37:28.682Z,95.56
2018-05-18T00:38:28.666Z,95.65
2018-05-18T00:39:28.648Z,96.32
2018-05-18T00:40:28.633Z,96.41
2018-05-18T00:41:28.617Z,96.36
2018-05-18T00:42:28.605Z,96.65
2018-05-18T00:43:28.858Z,96.65
2018-05-18T00:44:28.850Z,96.17
2018-05-18T00:45:28.556Z,97.61
2018-05-18T00:46:28.546Z,97.41
2018-05-18T00:47:28.800Z,95.89
2018-05-18T00:48:28.777Z,96.17
2018-05-18T00:49:28.762Z,95.98
2018-05-18T00:50:28.756Z,96.08
2018-05-18T00:51:28.738Z,96.27
2018-05-18T00:52:28.716Z,96.75
2018-05-18T00:53:28.443Z,96.7
2018-05-18T00:54:28.691Z,95.94
2018-05-18T00:55:28.672Z,96.22
2018-05-18T00:56:28.657Z,96.61
2018-05-18T00:57:28.644Z,96.51
2018-05-18T00:58:28.631Z,96.51
2018-05-18T00:59:28.351Z,95.84
2018-05-18T01:00:28.336Z,95.84
2018-05-18T01:01:28.586Z,96.89
2018-05-18T01:02:28.303Z,97.08
2018-05-18T01:03:28.290Z,96.41
2018-05-18T01:04:28.640Z,97.27
2018-05-18T01:05:28.524Z,98.42
2018-05-18T01:06:28.512Z,97.17
2018-05-18T01:07:28.490Z,97.03
2018-05-18T01:08:28.481Z,97.27
2018-05-18T01:09:28.461Z,97.66
2018-05-18T01:10:28.468Z,97.66
2018-05-18T01:11:28.434Z,97.51
2018-05-18T01:12:28.153Z,97.85
2018-05-18T01:13:28.399Z,96.65
2018-05-18T01:14:28.125Z,96.17
2018-05-18T01:15:28.377Z,96.61
2018-05-18T01:16:28.357Z,97.03
2018-05-18T01:17:28.078Z,97.8
2018-05-18T01:18:28.341Z,96.56
2018-05-18T01:19:28.310Z,96.84
2018-05-18T01:20:28.039Z,95.94
2018-05-18T01:21:28.021Z,96.32
2018-05-18T01:22:28.004Z,96.98
2018-05-18T01:23:27.988Z,96.61
2018-05-18T01:24:28.237Z,97.56
2018-05-18T01:25:27.963Z,97.46
2018-05-18T01:26:28.207Z,98.36
2018-05-18T01:27:28.204Z,98.03
2018-05-18T01:28:28.182Z,97.08
2018-05-18T01:29:27.895Z,97.51
2018-05-18T01:30:28.154Z,97.51
2018-05-18T01:31:28.133Z,97.75
2018-05-18T01:32:28.135Z,97.66
2018-05-18T01:33:28.103Z,98.36
2018-05-18T01:34:28.095Z,98.27
2018-05-18T01:35:27.805Z,97.41
2018-05-18T01:36:27.792Z,97.51
2018-05-18T01:37:28.040Z,97.99
2018-05-18T01:38:28.026Z,97.61
2018-05-18T01:39:28.039Z,97.41
2018-05-18T01:40:28.046Z,97.32
2018-05-18T01:41:27.992Z,98.36
2018-05-18T01:42:27.701Z,98.46
2018-05-18T01:43:27.956Z,99.6
2018-05-18T01:44:27.932Z,98.56
2018-05-18T01:45:27.661Z,99.8
2018-05-18T01:46:27.905Z,98.75
2018-05-18T01:47:27.629Z,98.36
2018-05-18T01:48:27.885Z,98.56
2018-05-18T01:49:27.864Z,99.13
2018-05-18T01:50:27.583Z,98.56
2018-05-18T01:51:27.568Z,98.75
2018-05-18T01:52:27.821Z,99.13
2018-05-18T01:53:27.812Z,99.6
2018-05-18T01:54:27.523Z,99.32
2018-05-18T01:55:27.771Z,98.75
2018-05-18T01:56:27.752Z,97.99
2018-05-18T01:57:27.742Z,99.13
2018-05-18T01:58:27.460Z,98.36
2018-05-18T01:59:27.707Z,99.7
2018-05-18T02:00:27.698Z,99.32
2018-05-18T02:01:27.683Z,98.85
2018-05-18T02:02:27.399Z,99.7
2018-05-18T02:03:27.647Z,99.22
2018-05-18T02:04:27.678Z,99.32
2018-05-18T02:05:27.357Z,98.94
2018-05-18T02:06:27.602Z,98.27
2018-05-18T02:07:27.601Z,99.41
2018-05-18T02:08:27.306Z,98.27
2018-05-18T02:09:27.555Z,98.56
2018-05-18T02:10:27.272Z,99.94
2018-05-18T02:11:27.526Z,99.08
2018-05-18T02:12:27.245Z,99.46
2018-05-18T02:13:27.234Z,98.22
2018-05-18T02:14:27.217Z,99.89
2018-05-18T02:15:27.459Z,99.7
2018-05-18T02:16:27.181Z,99.94
2018-05-18T02:17:27.370Z,99.94
2018-05-18T02:18:27.422Z,99.32
2018-05-18T02:19:27.135Z,99.32
2018-05-18T02:20:27.395Z,99.7
2018-05-18T02:21:27.108Z,99.8
2018-05-18T02:22:27.354Z,99.99
2018-05-18T02:23:27.336Z,99.75
2018-05-18T02:24:27.057Z,99.51
2018-05-18T02:25:27.311Z,99.7
2018-05-18T02:26:27.026Z,99.8
2018-05-18T02:27:27.011Z,99.84
2018-05-18T02:28:27.259Z,99.84
2018-05-18T02:29:26.983Z,99.22
2018-05-18T02:30:27.234Z,99.13
2018-05-18T02:31:27.217Z,98.65
2018-05-18T02:32:27.202Z,99.13
2018-05-18T02:33:26.919Z,99.04
2018-05-18T02:34:27.173Z,98.56
2018-05-18T02:35:27.161Z,98.75
2018-05-18T02:36:27.141Z,99.51
2018-05-18T02:37:27.139Z,99.89
2018-05-18T02:38:26.850Z,99.8
2018-05-18T02:39:27.325Z,99.8
2018-05-18T02:40:26.810Z,99.89
2018-05-18T02:41:26.800Z,99.7
2018-05-18T02:42:27.042Z,99.99
2018-05-18T02:43:27.035Z,98.85
2018-05-18T02:44:26.761Z,99.27
2018-05-18T02:45:27.004Z,98.51
2018-05-18T02:46:26.984Z,99.08
2018-05-18T02:47:26.989Z,98.03
2018-05-18T02:48:26.953Z,98.51
2018-05-18T02:49:26.934Z,99.27
2018-05-18T02:50:26.925Z,99.18
2018-05-18T02:51:26.638Z,98.6
2018-05-18T02:52:26.983Z,99.75
2018-05-18T02:53:26.880Z,99.84
2018-05-18T02:54:26.593Z,99.99
2018-05-18T02:55:26.845Z,99.18
2018-05-18T02:56:26.565Z,98.89
2018-05-18T02:57:26.846Z,99.27
2018-05-18T02:58:26.532Z,98.51
2018-05-18T02:59:26.516Z,98.41
2018-05-18T03:00:26.508Z,99.27
2018-05-18T03:01:26.489Z,99.08
2018-05-18T03:02:26.472Z,99.27
2018-05-18T03:03:26.453Z,98.13
2018-05-18T03:04:26.443Z,99.75
2018-05-18T03:05:26.703Z,99.65
2018-05-18T03:06:26.424Z,99.65
2018-05-18T03:07:26.661Z,99.27
2018-05-18T03:08:26.647Z,99.37
2018-05-18T03:09:26.630Z,99.55
2018-05-18T03:10:26.616Z,99.75
2018-05-18T03:11:26.328Z,99.94
2018-05-18T03:12:26.590Z,99.84
2018-05-18T03:13:26.564Z,99.84
2018-05-18T03:14:26.281Z,99.46
2018-05-18T03:15:26.532Z,99.75
2018-05-18T03:16:26.527Z,99.84
2018-05-18T03:17:26.235Z,99.99
2018-05-18T03:18:26.220Z,99.65
2018-05-18T03:19:26.200Z,99.94
2018-05-18T03:20:26.189Z,98.6
2018-05-18T03:21:26.171Z,99.55
2018-05-18T03:22:26.423Z,98.89
2018-05-18T03:23:26.409Z,99.27
2018-05-18T03:24:26.122Z,99.84
2018-05-18T03:25:26.105Z,98.89
2018-05-18T03:26:26.448Z,99.08
2018-05-18T03:27:26.344Z,98.99
2018-05-18T03:28:26.329Z,99.18
2018-05-18T03:29:26.045Z,99.55
2018-05-18T03:30:26.310Z,99.18
2018-05-18T03:31:26.286Z,99.08
2018-05-18T03:32:26.272Z,98.6
2018-05-18T03:33:26.256Z,99.08
2018-05-18T03:34:26.237Z,99.18
2018-05-18T03:35:26.217Z,99.08
2018-05-18T03:36:25.936Z,98.32
2018-05-18T03:37:26.187Z,98.89
2018-05-18T03:38:25.906Z,98.99
2018-05-18T03:39:25.887Z,99.99
2018-05-18T03:40:25.874Z,99.55
2018-05-18T03:41:25.863Z,99.18
2018-05-18T03:42:26.105Z,97.75
2018-05-18T03:43:25.829Z,98.51
2018-05-18T03:44:25.809Z,96.8
2018-05-18T03:45:25.797Z,96.41
2018-05-18T03:46:26.044Z,98.03
2018-05-18T03:47:26.031Z,99.08
2018-05-18T03:48:26.020Z,99.99
2018-05-18T03:49:25.735Z,99.94
2018-05-18T03:50:25.987Z,99.94
2018-05-18T03:51:25.970Z,99.99
2018-05-18T03:52:25.686Z,99.99
2018-05-18T03:53:25.940Z,99.99
2018-05-18T03:54:25.916Z,99.99
2018-05-18T03:55:25.921Z,99.99
2018-05-18T03:56:25.629Z,99.99
2018-05-18T03:57:25.871Z,99.99
2018-05-18T03:58:25.861Z,99.99
2018-05-18T03:59:25.839Z,99.99
2018-05-18T04:00:25.826Z,99.99
2018-05-18T04:01:25.629Z,99.99
2018-05-18T04:02:25.530Z,99.99
2018-05-18T04:03:25.778Z,99.99
2018-05-18T04:04:25.760Z,99.99
2018-05-18T04:05:25.757Z,99.99
2018-05-18T04:06:25.735Z,99.99
2018-05-18T04:07:25.455Z,99.99
2018-05-18T04:08:25.704Z,99.99
2018-05-18T04:09:25.690Z,99.99
2018-05-18T04:10:25.875Z,99.99
2018-05-18T04:11:25.656Z,99.99
2018-05-18T04:12:25.637Z,99.99
2018-05-18T04:13:25.359Z,99.99
2018-05-18T04:14:25.429Z,99.99
2018-05-18T04:15:25.338Z,99.99
2018-05-18T04:16:25.898Z,99.99
2018-05-18T04:17:25.761Z,99.99
2018-05-18T04:18:25.564Z,99.99
2018-05-18T04:19:25.554Z,99.99
2018-05-18T04:20:25.520Z,99.99
2018-05-18T04:21:25.496Z,99.99
2018-05-18T04:22:25.226Z,99.99
2018-05-18T04:23:25.200Z,99.99
2018-05-18T04:24:25.188Z,99.99
2018-05-18T04:25:25.172Z,99.99
2018-05-18T04:26:25.152Z,99.99
2018-05-18T04:27:25.139Z,99.99
2018-05-18T04:28:25.389Z,99.99
2018-05-18T04:29:25.111Z,99.99
2018-05-18T04:30:25.442Z,99.99
2018-05-18T04:31:25.075Z,99.99
2018-05-18T04:32:25.331Z,99.99
2018-05-18T04:33:25.042Z,99.99
2018-05-18T04:34:25.023Z,99.99
2018-05-18T04:35:25.274Z,99.99
2018-05-18T04:36:25.262Z,99.99
2018-05-18T04:37:25.249Z,99.99
2018-05-18T04:38:24.977Z,99.99
2018-05-18T04:39:24.949Z,99.99
2018-05-18T04:40:25.195Z,99.99
2018-05-18T04:41:24.919Z,99.99
2018-05-18T04:42:25.165Z,99.99
2018-05-18T04:43:25.376Z,99.99
2018-05-18T04:44:25.139Z,99.99
2018-05-18T04:45:25.123Z,99.99
2018-05-18T04:46:24.837Z,99.99
2018-05-18T04:47:25.086Z,99.99
2018-05-18T04:48:24.804Z,99.99
2018-05-18T04:49:25.056Z,99.99
2018-05-18T04:50:25.042Z,99.99
2018-05-18T04:51:25.032Z,99.99
2018-05-18T04:52:25.015Z,99.99
2018-05-18T04:53:24.733Z,99.99
2018-05-18T04:54:25.042Z,99.99
2018-05-18T04:55:24.699Z,99.99
2018-05-18T04:56:24.683Z,99.99
2018-05-18T04:57:24.664Z,99.99
2018-05-18T04:58:24.916Z,99.99
2018-05-18T04:59:24.908Z,99.99
2018-05-18T05:00:24.620Z,99.99
2018-05-18T05:01:24.607Z,99.99
2018-05-18T05:02:24.854Z,99.99
2018-05-18T05:03:24.838Z,99.99
2018-05-18T05:04:24.817Z,99.99
2018-05-18T05:05:24.632Z,99.99
2018-05-18T05:06:24.523Z,99.99
2018-05-18T05:07:24.510Z,99.99
2018-05-18T05:08:24.755Z,99.99
2018-05-18T05:09:24.744Z,99.99
2018-05-18T05:10:24.722Z,99.99
2018-05-18T05:11:24.707Z,99.99
2018-05-18T05:12:24.430Z,99.99
2018-05-18T05:13:24.414Z,99.99
2018-05-18T05:14:24.671Z,99.99
2018-05-18T05:15:24.386Z,99.99
2018-05-18T05:16:24.363Z,99.99
2018-05-18T05:17:24.353Z,99.99
2018-05-18T05:18:24.602Z,99.99
2018-05-18T05:19:24.317Z,99.99
2018-05-18T05:20:24.568Z,99.99
2018-05-18T05:21:24.288Z,99.99
2018-05-18T05:22:24.536Z,99.99
2018-05-18T05:23:24.261Z,99.99
2018-05-18T05:24:24.516Z,99.99
2018-05-18T05:25:24.488Z,99.99
2018-05-18T05:26:24.476Z,99.99
2018-05-18T05:27:24.193Z,99.99
2018-05-18T05:28:24.178Z,99.99
2018-05-18T05:29:24.429Z,99.99
2018-05-18T05:30:24.231Z,99.99
2018-05-18T05:31:24.131Z,99.99
2018-05-18T05:32:24.380Z,99.99
2018-05-18T05:33:24.362Z,99.99
2018-05-18T05:34:24.083Z,99.99
2018-05-18T05:35:24.336Z,99.99
2018-05-18T05:36:24.053Z,99.99
2018-05-18T05:37:24.300Z,99.99
2018-05-18T05:38:24.023Z,99.99
2018-05-18T05:39:24.270Z,99.99
2018-05-18T05:40:24.260Z,99.99
2018-05-18T05:41:24.235Z,99.99
2018-05-18T05:42:23.966Z,99.99
2018-05-18T05:43:24.206Z,99.99
2018-05-18T05:44:24.197Z,99.99
2018-05-18T05:45:23.916Z,99.99
2018-05-18T05:46:23.903Z,99.99
2018-05-18T05:47:24.145Z,99.99
2018-05-18T05:48:24.132Z,99.99
2018-05-18T05:49:24.118Z,99.99
2018-05-18T05:50:23.835Z,99.99
2018-05-18T05:51:23.819Z,99.99
2018-05-18T05:52:23.803Z,99.99
2018-05-18T05:53:24.093Z,99.99
2018-05-18T05:54:23.772Z,99.99
2018-05-18T05:55:24.028Z,99.99
2018-05-18T05:56:24.013Z,99.99
2018-05-18T05:57:23.726Z,99.99
2018-05-18T05:58:24.045Z,99.99
2018-05-18T05:59:23.702Z,99.99
2018-05-18T06:00:23.682Z,99.99
2018-05-18T06:01:23.670Z,99.99
2018-05-18T06:02:23.737Z,99.99
2018-05-18T06:03:23.640Z,99.99
2018-05-18T06:04:23.889Z,99.99
2018-05-18T06:05:23.619Z,99.99
2018-05-18T06:06:23.862Z,99.99
2018-05-18T06:07:23.853Z,99.99
2018-05-18T06:08:23.829Z,99.99
2018-05-18T06:09:23.813Z,99.99
2018-05-18T06:10:23.535Z,99.99
2018-05-18T06:11:23.785Z,99.99
2018-05-18T06:12:23.884Z,99.99
2018-05-18T06:13:23.758Z,99.99
2018-05-18T06:14:23.739Z,99.99
2018-05-18T06:15:23.722Z,99.99
2018-05-18T06:16:23.446Z,99.99
2018-05-18T06:17:23.899Z,99.99
2018-05-18T06:18:23.679Z,99.99
2018-05-18T06:19:23.762Z,99.99
2018-05-18T06:20:23.386Z,99.99
2018-05-18T06:21:23.370Z,99.99
2018-05-18T06:22:23.358Z,99.99
2018-05-18T06:23:23.337Z,99.99
2018-05-18T06:24:23.333Z,99.99
2018-05-18T06:25:23.574Z,99.99
2018-05-18T06:26:23.564Z,99.99
2018-05-18T06:27:23.284Z,99.99
2018-05-18T06:28:23.533Z,99.99
2018-05-18T06:29:23.528Z,99.99
2018-05-18T06:30:23.243Z,99.99
2018-05-18T06:31:23.489Z,99.99
2018-05-18T06:32:23.475Z,99.99
2018-05-18T06:33:23.200Z,99.99
2018-05-18T06:34:23.441Z,99.99
2018-05-18T06:35:23.164Z,99.99
2018-05-18T06:36:23.414Z,99.99
2018-05-18T06:37:23.134Z,99.99
2018-05-18T06:38:23.120Z,99.99
2018-05-18T06:39:23.371Z,99.99
2018-05-18T06:40:23.355Z,99.99
2018-05-18T06:41:23.637Z,99.99
2018-05-18T06:42:23.326Z,99.99
2018-05-18T06:43:23.309Z,99.99
2018-05-18T06:44:23.295Z,99.99
2018-05-18T06:45:23.285Z,99.99
2018-05-18T06:46:23.267Z,99.99
2018-05-18T06:47:22.993Z,99.99
2018-05-18T06:48:23.237Z,99.99
2018-05-18T06:49:22.958Z,99.99
2018-05-18T06:50:22.945Z,99.99
2018-05-18T06:51:23.199Z,99.99
2018-05-18T06:52:23.229Z,99.99
2018-05-18T06:53:23.168Z,99.99
2018-05-18T06:54:22.889Z,99.99
2018-05-18T06:55:22.872Z,99.99
2018-05-18T06:56:23.146Z,99.99
2018-05-18T06:57:22.845Z,99.99
2018-05-18T06:58:23.097Z,99.99
2018-05-18T06:59:22.824Z,99.99
2018-05-18T07:00:23.071Z,99.99
2018-05-18T07:01:22.794Z,99.99
2018-05-18T07:02:23.047Z,99.99
2018-05-18T07:03:23.028Z,99.99
2018-05-18T07:04:22.746Z,99.99
2018-05-18T07:05:23.005Z,99.99
2018-05-18T07:06:22.986Z,99.99
2018-05-18T07:07:22.977Z,99.99
2018-05-18T07:08:22.692Z,99.99
2018-05-18T07:09:22.676Z,99.99
2018-05-18T07:10:22.662Z,99.99
2018-05-18T07:11:22.648Z,99.99
2018-05-18T07:12:22.908Z,99.99
2018-05-18T07:13:22.887Z,99.99
2018-05-18T07:14:22.870Z,99.99
2018-05-18T07:15:22.591Z,99.99
2018-05-18T07:16:22.897Z,99.99
2018-05-18T07:17:22.838Z,99.99
2018-05-18T07:18:22.822Z,99.99
2018-05-18T07:19:22.544Z,99.99
2018-05-18T07:20:22.789Z,99.99
2018-05-18T07:21:22.775Z,99.99
2018-05-18T07:22:22.501Z,99.99
2018-05-18T07:23:22.745Z,99.99
2018-05-18T07:24:22.471Z,99.99
2018-05-18T07:25:22.455Z,99.99
2018-05-18T07:26:22.712Z,99.99
2018-05-18T07:27:22.695Z,99.99
2018-05-18T07:28:22.679Z,99.99
2018-05-18T07:29:22.401Z,99.99
2018-05-18T07:30:22.390Z,99.99
2018-05-18T07:31:22.378Z,95.03
2018-05-18T07:32:22.370Z,92.4
2018-05-18T07:33:22.629Z,86.54
2018-05-18T07:34:22.611Z,84.28
2018-05-18T07:35:22.696Z,80.05
2018-05-18T07:36:22.588Z,76.06
2018-05-18T07:37:22.578Z,72.92
2018-05-18T07:38:22.573Z,72.73
2018-05-18T07:39:22.561Z,72.58
2018-05-18T07:40:22.549Z,69.15
2018-05-18T07:41:22.544Z,68.8
2018-05-18T07:42:22.275Z,68.6
2018-05-18T07:43:22.528Z,69.69
2018-05-18T07:44:22.520Z,72.28
2018-05-18T07:45:22.506Z,74.73
2018-05-18T07:46:22.499Z,78.25
2018-05-18T07:47:22.584Z,79.07
2018-05-18T07:48:22.219Z,78.74
2018-05-18T07:49:22.483Z,78.59
2018-05-18T07:50:22.469Z,77.13
2018-05-18T07:51:22.461Z,74.04
2018-05-18T07:52:22.185Z,74.23
2018-05-18T07:53:22.445Z,75.02
2018-05-18T07:54:22.438Z,73.77
2018-05-18T07:55:22.159Z,72.41
2018-05-18T07:56:22.154Z,72.64
2018-05-18T07:57:22.411Z,70.33
2018-05-18T07:58:22.403Z,70.84
2018-05-18T07:59:22.427Z,69.47
2018-05-18T08:00:22.124Z,66.01
2018-05-18T08:01:22.386Z,67.35
2018-05-18T08:02:22.384Z,69.79
2018-05-18T08:03:22.106Z,71.77
2018-05-18T08:04:22.365Z,72.02
2018-05-18T08:05:22.095Z,73.49
2018-05-18T08:06:22.084Z,74.98
2018-05-18T08:07:22.349Z,78.78
2018-05-18T08:08:22.070Z,80.94
2018-05-18T08:09:22.329Z,81.29
2018-05-18T08:10:22.323Z,84.69
2018-05-18T08:11:22.315Z,85.22
2018-05-18T08:12:22.041Z,89.05
2018-05-18T08:13:22.298Z,88.67
2018-05-18T08:14:22.288Z,89.48
2018-05-18T08:15:22.289Z,90.34
2018-05-18T08:16:22.272Z,92.59
2018-05-18T08:17:22.207Z,96.32
2018-05-18T08:18:21.987Z,93.65
2018-05-18T08:19:22.243Z,93.16
2018-05-18T08:20:22.237Z,95.46
2018-05-18T08:21:22.222Z,95.46
2018-05-18T08:22:22.216Z,88.81
2018-05-18T08:23:22.204Z,86.32
2018-05-18T08:24:21.931Z,87.04
2018-05-18T08:25:21.927Z,88.57
2018-05-18T08:26:21.912Z,88.19
2018-05-18T08:27:22.169Z,86.71
2018-05-18T08:28:21.892Z,84.79
2018-05-18T08:29:22.148Z,82.96
2018-05-18T08:30:22.137Z,81.41
2018-05-18T08:31:22.129Z,76.37
2018-05-18T08:32:22.118Z,74.13
2018-05-18T08:33:21.849Z,72.44
2018-05-18T08:34:22.104Z,72.34
2018-05-18T08:35:21.829Z,72.79
2018-05-18T08:36:21.818Z,74.1
2018-05-18T08:37:21.810Z,74.54
2018-05-18T08:38:21.809Z,76.04
2018-05-18T08:39:21.794Z,76.1
2018-05-18T08:40:22.048Z,78.36
2018-05-18T08:41:21.780Z,78.84
2018-05-18T08:42:21.769Z,78.7
2018-05-18T08:43:22.034Z,81.38
2018-05-18T08:44:21.826Z,80.24
2018-05-18T08:45:21.743Z,82.53
2018-05-18T08:46:21.991Z,85.17
2018-05-18T08:47:21.986Z,87.08
2018-05-18T08:48:21.979Z,88.04
2018-05-18T08:49:21.967Z,86.22
2018-05-18T08:50:21.818Z,85.99
2018-05-18T08:51:21.686Z,87.71
2018-05-18T08:52:21.671Z,87.9
2018-05-18T08:53:21.922Z,91.35
2018-05-18T08:54:21.908Z,90.67
2018-05-18T08:55:21.905Z,90.58
2018-05-18T08:56:21.893Z,88.48
2018-05-18T08:57:21.614Z,89.43
2018-05-18T08:58:21.609Z,88.48
2018-05-18T08:59:21.599Z,90.39
2018-05-18T09:00:21.580Z,91.59
2018-05-18T09:01:21.835Z,91.16
2018-05-18T09:02:21.825Z,90.39
2018-05-18T09:03:21.815Z,87.23
2018-05-18T09:04:21.541Z,89.91
2018-05-18T09:05:21.529Z,89.72
2018-05-18T09:06:21.790Z,89.58
2018-05-18T09:07:21.784Z,92.54
2018-05-18T09:08:21.500Z,91.49
2018-05-18T09:09:21.487Z,89.67
2018-05-18T09:10:21.745Z,91.58
2018-05-18T09:11:21.467Z,91.3
2018-05-18T09:12:21.728Z,89.76
2018-05-18T09:13:21.710Z,90.67
2018-05-18T09:14:21.439Z,92.11
2018-05-18T09:15:21.433Z,90.2
2018-05-18T09:16:21.415Z,91.73
2018-05-18T09:17:21.667Z,91.44
2018-05-18T09:18:21.663Z,91.06
2018-05-18T09:19:21.648Z,91.16
2018-05-18T09:20:21.638Z,90.39
2018-05-18T09:21:21.359Z,89.39
2018-05-18T09:22:21.354Z,87.66
2018-05-18T09:23:21.605Z,95.03
2018-05-18T09:24:21.607Z,93.21
2018-05-18T09:25:21.591Z,95.32
2018-05-18T09:26:21.357Z,93.88
2018-05-18T09:27:21.301Z,94.55
2018-05-18T09:28:21.577Z,94.41
2018-05-18T09:29:21.559Z,93.74
2018-05-18T09:30:21.532Z,91.63
2018-05-18T09:31:21.520Z,90.87
2018-05-18T09:32:21.242Z,89.43
2018-05-18T09:33:21.506Z,92.02
2018-05-18T09:34:21.675Z,89.43
2018-05-18T09:35:21.488Z,89.62
2018-05-18T09:36:21.483Z,90.2
2018-05-18T09:37:21.458Z,91.25
2018-05-18T09:38:21.457Z,94.31
2018-05-18T09:39:21.171Z,92.49
2018-05-18T09:40:21.625Z,92.44
2018-05-18T09:41:21.147Z,93.02
2018-05-18T09:42:21.404Z,91.49
2018-05-18T09:43:21.391Z,95.03
2018-05-18T09:44:21.112Z,91.97
2018-05-18T09:45:21.427Z,90.34
2018-05-18T09:46:21.092Z,90.91
2018-05-18T09:47:21.083Z,88.23
2018-05-18T09:48:21.071Z,91.97
2018-05-18T09:49:21.326Z,90.44
2018-05-18T09:50:21.320Z,89.95
2018-05-18T09:51:21.299Z,93.59
2018-05-18T09:52:21.028Z,93.88
2018-05-18T09:53:21.019Z,92.16
2018-05-18T09:54:21.646Z,90.72
2018-05-18T09:55:21.571Z,90.72
2018-05-18T09:56:20.992Z,89.67
2018-05-18T09:57:20.975Z,87.66
2018-05-18T09:58:20.967Z,89.76
2018-05-18T09:59:21.221Z,89.48
2018-05-18T10:00:21.213Z,90.44
2018-05-18T10:01:21.208Z,90.53
2018-05-18T10:02:20.926Z,89.58
2018-05-18T10:03:20.918Z,97.47
2018-05-18T10:04:21.082Z,90.91
2018-05-18T10:05:20.920Z,89.95
2018-05-18T10:06:21.148Z,92.16
2018-05-18T10:07:21.140Z,89
2018-05-18T10:08:20.863Z,87.08
2018-05-18T10:09:21.112Z,86.41
2018-05-18T10:10:20.835Z,92.78
2018-05-18T10:11:20.825Z,89.48
2018-05-18T10:12:21.190Z,90.63
2018-05-18T10:13:21.069Z,88.71
2018-05-18T10:14:20.799Z,87.56
2018-05-18T10:15:21.050Z,88.43
2018-05-18T10:16:20.775Z,91.3
2018-05-18T10:17:21.432Z,91.87
2018-05-18T10:18:21.017Z,89.23
2018-05-18T10:19:21.011Z,85.5
2018-05-18T10:20:20.739Z,84.55
2018-05-18T10:21:20.997Z,85.02
2018-05-18T10:22:20.723Z,86.55
2018-05-18T10:23:20.982Z,85.83
2018-05-18T10:24:20.970Z,88.94
2018-05-18T10:25:20.693Z,82.37
2018-05-18T10:26:20.953Z,79.96
2018-05-18T10:27:20.948Z,78.03
2018-05-18T10:28:20.675Z,75.35
2018-05-18T10:29:20.938Z,74.68
2018-05-18T10:30:20.937Z,75.63
2018-05-18T10:31:20.933Z,74.64
2018-05-18T10:32:20.921Z,78.09
2018-05-18T10:33:20.922Z,77.8
2018-05-18T10:34:20.911Z,77.71
2018-05-18T10:35:20.905Z,76.27
2018-05-18T10:36:20.633Z,75.98
2018-05-18T10:37:20.898Z,75.35
2018-05-18T10:38:20.626Z,75.67
2018-05-18T10:39:20.894Z,76.4
2018-05-18T10:40:20.881Z,76.21
2018-05-18T10:41:20.607Z,78.03
2018-05-18T10:42:20.606Z,77.65
2018-05-18T10:43:20.867Z,75.73
2018-05-18T10:44:20.591Z,75.54
2018-05-18T10:45:20.926Z,75.12
2018-05-18T10:46:20.584Z,74.96
2018-05-18T10:47:20.577Z,76.64
2018-05-18T10:48:20.573Z,73.79
2018-05-18T10:49:20.663Z,74.85
2018-05-18T10:50:20.828Z,74.27
2018-05-18T10:51:20.558Z,71.67
2018-05-18T10:52:20.818Z,69.4
2018-05-18T10:53:20.818Z,69.89
2018-05-18T10:54:20.810Z,69.79
2018-05-18T10:55:20.546Z,70.46
2018-05-18T10:56:20.545Z,69.34
2018-05-18T10:57:20.533Z,67.65
2018-05-18T10:58:20.794Z,68.29
2018-05-18T10:59:20.529Z,67.42
2018-05-18T11:00:20.793Z,69.44
2018-05-18T11:01:20.521Z,70.17
2018-05-18T11:02:20.518Z,69.75
2018-05-18T11:03:20.519Z,69.85
2018-05-18T11:04:20.776Z,70.9
2018-05-18T11:05:20.960Z,70.29
2018-05-18T11:06:20.509Z,71.19
2018-05-18T11:07:20.772Z,71.14
2018-05-18T11:08:20.760Z,66.46
2018-05-18T11:09:20.499Z,66.2
2018-05-18T11:10:20.762Z,66.88
2018-05-18T11:11:20.756Z,68.19
2018-05-18T11:12:20.756Z,67.71
2018-05-18T11:13:20.754Z,67.71
2018-05-18T11:14:21.133Z,68.76
2018-05-18T11:15:20.752Z,68.41
2018-05-18T11:16:20.478Z,64.89
2018-05-18T11:17:20.743Z,65.72
2018-05-18T11:18:20.744Z,64.21
2018-05-18T11:19:20.469Z,62.99
2018-05-18T11:20:20.467Z,62.6
2018-05-18T11:21:20.731Z,63.41
2018-05-18T11:22:20.461Z,61.9
2018-05-18T11:23:20.735Z,59.42
2018-05-18T11:24:20.731Z,58.84
2018-05-18T11:25:20.727Z,60.38
2018-05-18T11:26:20.532Z,61.25
2018-05-18T11:27:20.467Z,58.68
2018-05-18T11:28:20.469Z,56.94
2018-05-18T11:29:20.466Z,57.32
2018-05-18T11:30:20.734Z,59.55
2018-05-18T11:31:20.724Z,58.29
2018-05-18T11:32:20.473Z,58.61
2018-05-18T11:33:20.736Z,59.67
2018-05-18T11:34:20.469Z,56.9
2018-05-18T11:35:20.732Z,55.83
2018-05-18T11:36:20.471Z,57.57
2018-05-18T11:37:20.472Z,59.8
2018-05-18T11:38:20.741Z,58.64
2018-05-18T11:39:20.742Z,56.61
2018-05-18T11:40:20.480Z,55.29
2018-05-18T11:41:20.756Z,55.79
2018-05-18T11:42:20.758Z,53.99
2018-05-18T11:43:20.757Z,53.21
2018-05-18T11:44:20.756Z,53.28
2018-05-18T11:45:20.489Z,53.86
2018-05-18T11:46:20.788Z,53.55
2018-05-18T11:47:20.771Z,55.47
2018-05-18T11:48:20.501Z,57.12
2018-05-18T11:49:20.497Z,56.76
2018-05-18T11:50:20.771Z,54.17
2018-05-18T11:51:20.508Z,55.11
2018-05-18T11:52:20.773Z,55.63
2018-05-18T11:53:20.820Z,53.33
2018-05-18T11:54:20.514Z,52.17
2018-05-18T11:55:20.518Z,54.39
2018-05-18T11:56:20.521Z,53.14
2018-05-18T11:57:20.524Z,53.21
2018-05-18T11:58:20.537Z,53.59
2018-05-18T11:59:20.797Z,53.99
2018-05-18T12:00:20.802Z,53.89
2018-05-18T12:01:20.539Z,51.95
2018-05-18T12:02:20.547Z,51.86
2018-05-18T12:03:20.810Z,52.05
2018-05-18T12:04:20.815Z,53.41
2018-05-18T12:05:20.821Z,53.31
2018-05-18T12:06:20.559Z,53.02
2018-05-18T12:07:20.559Z,51.98
2018-05-18T12:08:21.028Z,53.23
2018-05-18T12:09:20.572Z,53.11
2018-05-18T12:10:20.567Z,56.4
2018-05-18T12:11:20.590Z,51.78
2018-05-18T12:12:20.582Z,52.08
2018-05-18T12:13:20.858Z,52.75
2018-05-18T12:14:20.848Z,52
2018-05-18T12:15:20.591Z,51.13
2018-05-18T12:16:20.859Z,51.13
2018-05-18T12:17:20.591Z,51.54
2018-05-18T12:18:20.860Z,50.29
2018-05-18T12:19:20.861Z,50.41
2018-05-18T12:20:20.641Z,51.62
2018-05-18T12:21:20.608Z,51.13
2018-05-18T12:22:20.880Z,51.72
2018-05-18T12:23:20.622Z,52.85
2018-05-18T12:24:21.107Z,51.98
2018-05-18T12:25:20.892Z,53.26
2018-05-18T12:26:20.636Z,53.49
2018-05-18T12:27:20.901Z,53.8
2018-05-18T12:28:20.909Z,53.15
2018-05-18T12:29:20.932Z,49.37
2018-05-18T12:30:20.645Z,49.63
2018-05-18T12:31:20.921Z,50.57
2018-05-18T12:32:20.922Z,51.13
2018-05-18T12:33:20.657Z,52.97
2018-05-18T12:34:20.662Z,49.1
2018-05-18T12:35:20.938Z,51.68
2018-05-18T12:36:20.675Z,54.21
2018-05-18T12:37:20.945Z,51.98
2018-05-18T12:38:21.249Z,52.87
2018-05-18T12:39:20.685Z,51.1
2018-05-18T12:40:20.959Z,52.82
2018-05-18T12:41:20.959Z,54.15
2018-05-18T12:42:20.965Z,53.5
2018-05-18T12:43:20.966Z,53.31
2018-05-18T12:44:20.970Z,51.1
2018-05-18T12:45:20.709Z,52.66
2018-05-18T12:46:20.979Z,53.91
2018-05-18T12:47:20.725Z,53.07
2018-05-18T12:48:20.982Z,52.71
2018-05-18T12:49:20.989Z,51.64
2018-05-18T12:50:20.988Z,50.77
2018-05-18T12:51:20.994Z,53.09
2018-05-18T12:52:21.009Z,51.54
2018-05-18T12:53:21.004Z,51.45
2018-05-18T12:54:21.007Z,50.26